temperature
    1      8.50  2020 02 26 17 27   48.46990  236.68100     5
    3      8.60  2020 02 26 17 27   48.47760  236.58299     1
    4      8.40  2020 02 26 17 27   48.44080  236.66100     1
    5      8.40  2020 02 26 17 27   48.46600  236.66299     1
    6      8.50  2020 02 26 17 27   48.46160  236.59200     1
    7      8.70  2020 02 26 17 27   48.46550  236.67900     1
    8      8.40  2020 02 26 17 27   48.42930  236.65300     1
    9      8.60  2020 02 26 17 27   48.46510  236.70000     1
   10      8.20  2020 02 26 17 27   48.42530  236.59500     1
   11      8.40  2020 02 26 17 27   48.41690  236.62000     1
   12      8.70  2020 02 26 17 27   48.43460  236.61200     1
   14      8.90  2020 02 26 17 27   48.43590  236.68900     1
   15      8.90  2020 02 26 17 27   48.41530  236.65199     1
   16      8.30  2020 02 26 17 27   48.45190  236.60699     1
   17      8.00  2020 02 26 17 27   48.46630  236.55800     1
   18      8.20  2020 02 26 17 27   48.48650  236.67599     1
   19      8.70  2020 02 26 17 27   48.41820  236.68600     1
   20      8.50  2020 02 26 17 27   48.47880  236.63499     1
   21      8.10  2020 02 26 17 27   48.47440  236.61900     1
   22      8.40  2020 02 26 17 27   48.45340  236.64101     1
   24      8.00  2020 02 26 17 27   48.48490  236.68600     1
   25      8.40  2020 02 26 17 27   48.44510  236.67200     1
   26      8.50  2020 02 26 17 27   48.45620  236.66200     1
   27      8.30  2020 02 26 17 27   48.47690  236.60899     1
   29      8.80  2020 02 26 17 27   48.43290  236.64900     1
   32      8.60  2020 02 26 17 27   48.43560  236.51401     3
   33      9.00  2020 02 26 17 27   48.46830  236.64101     1
   34      7.90  2020 02 26 17 27   48.45290  236.52299     3
   35      8.50  2020 02 26 17 27   48.44280  236.50400     3
   36      7.90  2020 02 26 17 27   48.36400  236.44600     3
   37      8.70  2020 02 26 17 27   48.37100  236.25000     3
   39      8.40  2020 02 26 17 27   48.46550  236.49400     3
   40      8.50  2020 02 26 17 27   48.45150  236.49500     3
   41      8.80  2020 02 26 17 27   48.42810  236.63400     2
   42      9.10  2020 02 26 17 27   48.56210  236.53400     2
   43      9.20  2020 02 26 17 27   48.45220  236.73300     5
   55      8.80  2020 02 26 17 27   48.44880  236.51401     3
   56      9.00  2020 02 26 17 27   48.45720  236.45100     3
   57      8.60  2020 02 26 17 27   48.42180  236.50500     3
   59      8.70  2020 02 26 17 27   48.38740  236.28300     3
   60      9.20  2020 02 26 17 27   48.43820  236.60400     1
   61      8.90  2020 02 26 17 27   48.52730  236.63000     4
   64      9.20  2020 02 26 17 27   48.50140  236.63901     4
   66      8.80  2020 02 26 17 27   48.52340  236.56700     4
   67      8.90  2020 02 26 17 27   48.65290  236.59599     4
   68      8.70  2020 02 26 17 27   48.56970  236.54700     4
   71      7.90  2020 02 26 17 27   48.53760  236.49899    11
   72      8.70  2020 02 26 17 27   48.29838  236.46838     5
   73      8.70  2020 02 26 17 27   48.45370  236.57899     1
   74      8.70  2020 02 26 17 27   48.44560  236.63901     1
   75      8.20  2020 02 26 17 27   48.42350  236.65300     1
   77      8.70  2020 02 26 17 27   48.46690  236.60800     1
   79      8.40  2020 02 26 17 27   48.47130  236.69299     1
   80      8.50  2020 02 26 17 27   48.48210  236.67000     1
   82      8.30  2020 02 26 17 27   48.46080  236.60699     1
   85      8.40  2020 02 26 17 27   48.82900  235.94800    10
   86      6.00  2020 02 26 17 27   49.22620  235.97301    20
   89      7.20  2020 02 26 17 27   49.31120  235.67300    21
   90      8.50  2020 02 26 17 27   48.45710  236.56300     1
   93      8.80  2020 02 26 17 27   48.65380  236.37601    14
   95      6.70  2020 02 26 17 27   49.34850  235.59900    21
   96      6.80  2020 02 26 17 27   49.44590  235.30099    21
   98      9.60  2020 02 26 17 27   48.41610  236.67000     1
   99      8.30  2020 02 26 17 27   48.51100  236.53600    11
  100      7.70  2020 02 26 17 27   48.48110  236.48700    11
  101      6.80  2020 02 26 17 27   48.51010  236.47600    11
  104      9.20  2020 02 26 17 27   48.42810  236.47099     3
  106      8.70  2020 02 26 17 27   48.38910  236.30400     3
  107      8.90  2020 02 26 17 27   48.46610  236.50400     3
  110      6.70  2020 02 26 17 27   49.27380  235.80901    21
  111      7.30  2020 02 26 17 27   49.31490  235.68800    21
  114      6.80  2020 02 26 17 27   48.88560  236.66600    40
  114      6.80  2020 02 26 17 27   48.88560  236.66600    45
  115      8.10  2020 02 26 17 27   48.43210  236.59801     5
  119      7.90  2020 02 26 17 27   48.90720  236.46100    40
  121      8.20  2020 02 26 17 27   48.85540  236.49300    40
  122      8.00  2020 02 26 17 27   48.85030  236.49400    40
  123      6.00  2020 02 26 17 27   49.15670  236.03101    23
  126      9.60  2020 02 26 17 27   48.78590  236.30499    10
  128      7.50  2020 02 26 17 27   48.43600  236.53700     3
  132      8.80  2020 02 26 17 27   48.61540  236.36900    14
  133      9.00  2020 02 26 17 27   48.65230  236.34900    10
  134      8.30  2020 02 26 17 27   48.46480  236.62601     5
  138      7.00  2020 02 26 17 27   49.15220  236.06200    20
  139      6.90  2020 02 26 17 27   49.23280  236.03200    20
  143      8.20  2020 02 26 17 27   48.46230  236.69099     5
  144      8.80  2020 02 26 17 27   48.43940  236.64999     5
  162      9.20  2020 02 26 17 27   48.45240  236.67101     5
  163      8.30  2020 02 26 17 27   48.46480  236.68600     5
  165      9.20  2020 02 26 17 27   49.26100  235.19299    60
  167      7.70  2020 02 26 17 27   49.15040  234.09500    60
  168      7.70  2020 02 26 17 27   48.93980  234.45500    60
  169      8.60  2020 02 26 17 27   48.43780  236.46700     5
  174      7.90  2020 02 26 17 27   48.62580  236.57700     4
  178    -15.90  2020 02 26 17 27   64.06090  225.57001    81
  179      6.20  2020 02 26 17 27   49.78270  233.94901    70
  181      8.60  2020 02 26 17 27   48.38970  236.47800     5
  182      7.20  2020 02 26 17 27   49.20990  236.04500    23
  184      8.90  2020 02 26 17 27   49.21830  235.19200    23
  188      8.80  2020 02 26 17 27   48.66570  236.58200     4
  189      6.40  2020 02 26 17 27   49.70950  235.08600    30
  190      7.10  2020 02 26 17 27   49.68220  235.00101    30
  191      5.70  2020 02 26 17 27   49.62120  234.96700    30
  192      6.90  2020 02 26 17 27   49.53550  235.18401    30
  194      7.40  2020 02 26 17 27   49.85610  234.88100    30
  197      7.10  2020 02 26 17 27   48.52190  236.58000     5
  199      8.40  2020 02 26 17 27   48.39510  236.69501     5
  200      8.80  2020 02 26 17 27   48.48800  236.67300     5
  204      7.70  2020 02 26 17 27   49.94130  234.80499    35
  205      7.30  2020 02 26 17 27   49.96700  234.78400    35
  206      7.10  2020 02 26 17 27   49.97270  234.76100    35
  208      6.80  2020 02 26 17 27   50.02360  234.72600    35
  209      7.20  2020 02 26 17 27   50.01920  234.74800    35
  210      6.70  2020 02 26 17 27   50.02080  234.75400    35
  212      6.30  2020 02 26 17 27   50.37740  234.04201    35
  213      6.30  2020 02 26 17 27   50.01380  234.75000    35
  215      8.40  2020 02 26 17 27   48.46180  236.59500     5
  216      8.60  2020 02 26 17 27   49.17440  237.15300    80
  217      8.60  2020 02 26 17 27   48.45190  236.70399     5
  218      7.10  2020 02 26 17 27   49.32200  235.65700    21
  227      8.40  2020 02 26 17 27   48.52524  236.61111     5
  228      8.90  2020 02 26 17 27   48.43951  236.62003     5
  234      6.20  2020 02 26 17 27   48.88760  236.62149    45
  235      6.90  2020 02 26 17 27   48.92833  236.53203    45
  236      6.90  2020 02 26 17 27   48.90087  236.65764    45
  237      7.30  2020 02 26 17 27   48.96380  236.44890    45
  238      6.60  2020 02 26 17 27   48.88512  236.64799    45
humidity
    1     77.00  2020 02 26 17 27   48.46990  236.68100     5
    3     81.00  2020 02 26 17 27   48.47760  236.58299     1
    4     76.00  2020 02 26 17 27   48.44080  236.66100     1
    5     77.00  2020 02 26 17 27   48.46600  236.66299     1
    6     86.00  2020 02 26 17 27   48.46160  236.59200     1
    7     85.00  2020 02 26 17 27   48.46550  236.67900     1
    8     84.00  2020 02 26 17 27   48.42930  236.65300     1
    9     81.00  2020 02 26 17 27   48.46510  236.70000     1
   10     22.00  2020 02 26 17 27   48.42530  236.59500     1
   11     81.00  2020 02 26 17 27   48.41690  236.62000     1
   12     85.00  2020 02 26 17 27   48.43460  236.61200     1
   14     79.00  2020 02 26 17 27   48.43590  236.68900     1
   15     85.00  2020 02 26 17 27   48.41530  236.65199     1
   16     84.00  2020 02 26 17 27   48.45190  236.60699     1
   17     84.00  2020 02 26 17 27   48.46630  236.55800     1
   18     79.00  2020 02 26 17 27   48.48650  236.67599     1
   19     85.00  2020 02 26 17 27   48.41820  236.68600     1
   20     77.00  2020 02 26 17 27   48.47880  236.63499     1
   21     86.00  2020 02 26 17 27   48.47440  236.61900     1
   22     83.00  2020 02 26 17 27   48.45340  236.64101     1
   25     84.00  2020 02 26 17 27   48.44510  236.67200     1
   26     84.00  2020 02 26 17 27   48.45620  236.66200     1
   27     85.00  2020 02 26 17 27   48.47690  236.60899     1
   29     84.00  2020 02 26 17 27   48.43290  236.64900     1
   31     74.00  2020 02 26 17 27   48.42050  236.51401     3
   33     83.00  2020 02 26 17 27   48.46830  236.64101     1
   34     90.00  2020 02 26 17 27   48.45290  236.52299     3
   35     88.00  2020 02 26 17 27   48.44280  236.50400     3
   36     88.00  2020 02 26 17 27   48.36400  236.44600     3
   37     86.00  2020 02 26 17 27   48.37100  236.25000     3
   39     87.00  2020 02 26 17 27   48.46550  236.49400     3
   40     80.00  2020 02 26 17 27   48.45150  236.49500     3
   41     73.00  2020 02 26 17 27   48.42810  236.63400     2
   42     84.00  2020 02 26 17 27   48.56210  236.53400     2
   43     81.00  2020 02 26 17 27   48.45220  236.73300     5
   56     82.00  2020 02 26 17 27   48.45720  236.45100     3
   57     83.00  2020 02 26 17 27   48.42180  236.50500     3
   59     85.00  2020 02 26 17 27   48.38740  236.28300     3
   64     82.00  2020 02 26 17 27   48.50140  236.63901     4
   66     68.00  2020 02 26 17 27   48.52340  236.56700     4
   67     81.00  2020 02 26 17 27   48.65290  236.59599     4
   68     82.00  2020 02 26 17 27   48.56970  236.54700     4
   72     61.00  2020 02 26 17 27   48.29838  236.46838     5
   73     88.00  2020 02 26 17 27   48.45370  236.57899     1
   74     81.00  2020 02 26 17 27   48.44560  236.63901     1
   75     86.00  2020 02 26 17 27   48.42350  236.65300     1
   77     84.00  2020 02 26 17 27   48.46690  236.60800     1
   79     86.00  2020 02 26 17 27   48.47130  236.69299     1
   80     85.00  2020 02 26 17 27   48.48210  236.67000     1
   82     84.00  2020 02 26 17 27   48.46080  236.60699     1
   85     81.00  2020 02 26 17 27   48.82900  235.94800    10
   86     91.00  2020 02 26 17 27   49.22620  235.97301    20
   89     83.00  2020 02 26 17 27   49.31120  235.67300    21
   90     83.00  2020 02 26 17 27   48.45710  236.56300     1
   93     84.00  2020 02 26 17 27   48.65380  236.37601    14
   95     90.00  2020 02 26 17 27   49.34850  235.59900    21
   96     87.00  2020 02 26 17 27   49.44590  235.30099    21
   98     78.00  2020 02 26 17 27   48.41610  236.67000     1
   99     87.00  2020 02 26 17 27   48.51100  236.53600    11
  100     89.00  2020 02 26 17 27   48.48110  236.48700    11
  101     88.00  2020 02 26 17 27   48.51010  236.47600    11
  104     84.00  2020 02 26 17 27   48.42810  236.47099     3
  107     83.00  2020 02 26 17 27   48.46610  236.50400     3
  111     84.00  2020 02 26 17 27   49.31490  235.68800    21
  114     91.00  2020 02 26 17 27   48.88560  236.66600    40
  114     91.00  2020 02 26 17 27   48.88560  236.66600    45
  121     88.00  2020 02 26 17 27   48.85540  236.49300    40
  122      5.00  2020 02 26 17 27   48.85030  236.49400    40
  123     86.00  2020 02 26 17 27   49.15670  236.03101    23
  126     81.00  2020 02 26 17 27   48.78590  236.30499    10
  128     92.00  2020 02 26 17 27   48.43600  236.53700     3
  132     80.00  2020 02 26 17 27   48.61540  236.36900    14
  133     80.00  2020 02 26 17 27   48.65230  236.34900    10
  134     86.00  2020 02 26 17 27   48.46480  236.62601     5
  138     89.00  2020 02 26 17 27   49.15220  236.06200    20
  139     90.00  2020 02 26 17 27   49.23280  236.03200    20
  143     80.00  2020 02 26 17 27   48.46230  236.69099     5
  144     85.00  2020 02 26 17 27   48.43940  236.64999     5
  162     81.00  2020 02 26 17 27   48.45240  236.67101     5
  163     85.00  2020 02 26 17 27   48.46480  236.68600     5
  165     83.00  2020 02 26 17 27   49.26100  235.19299    60
  167      0.00  2020 02 26 17 27   49.15040  234.09500    60
  174     85.00  2020 02 26 17 27   48.62580  236.57700     4
  178     80.00  2020 02 26 17 27   64.06090  225.57001    81
  181      0.00  2020 02 26 17 27   48.38970  236.47800     5
  182     89.00  2020 02 26 17 27   49.20990  236.04500    23
  184     82.00  2020 02 26 17 27   49.21830  235.19200    23
  188     79.00  2020 02 26 17 27   48.66570  236.58200     4
  189     90.00  2020 02 26 17 27   49.70950  235.08600    30
  190     90.00  2020 02 26 17 27   49.68220  235.00101    30
  191     92.00  2020 02 26 17 27   49.62120  234.96700    30
  192     90.00  2020 02 26 17 27   49.53550  235.18401    30
  194     76.00  2020 02 26 17 27   49.85610  234.88100    30
  197     28.00  2020 02 26 17 27   48.52190  236.58000     5
  199     70.00  2020 02 26 17 27   48.39510  236.69501     5
  200     84.00  2020 02 26 17 27   48.48800  236.67300     5
  204     91.00  2020 02 26 17 27   49.94130  234.80499    35
  205     81.00  2020 02 26 17 27   49.96700  234.78400    35
  206      1.00  2020 02 26 17 27   49.97270  234.76100    35
  208     92.00  2020 02 26 17 27   50.02360  234.72600    35
  209      1.00  2020 02 26 17 27   50.01920  234.74800    35
  210     92.00  2020 02 26 17 27   50.02080  234.75400    35
  212     91.00  2020 02 26 17 27   50.37740  234.04201    35
  213     91.00  2020 02 26 17 27   50.01380  234.75000    35
  215     84.00  2020 02 26 17 27   48.46180  236.59500     5
  216     82.00  2020 02 26 17 27   49.17440  237.15300    80
  217     88.00  2020 02 26 17 27   48.45190  236.70399     5
  218     90.00  2020 02 26 17 27   49.32200  235.65700    21
  227     84.00  2020 02 26 17 27   48.52524  236.61111     5
  228     85.00  2020 02 26 17 27   48.43951  236.62003     5
  234     92.00  2020 02 26 17 27   48.88760  236.62149    45
  235     77.00  2020 02 26 17 27   48.92833  236.53203    45
  236     90.00  2020 02 26 17 27   48.90087  236.65764    45
  237     74.00  2020 02 26 17 27   48.96380  236.44890    45
  238     21.00  2020 02 26 17 27   48.88512  236.64799    45
wind
    1      1.60  2020 02 26 17 27   48.46990  236.68100     5
    3      0.80  2020 02 26 17 27   48.47760  236.58299     1
    4      2.00  2020 02 26 17 27   48.44080  236.66100     1
    5      0.90  2020 02 26 17 27   48.46600  236.66299     1
    6      2.00  2020 02 26 17 27   48.46160  236.59200     1
    7      0.30  2020 02 26 17 27   48.46550  236.67900     1
    8      1.00  2020 02 26 17 27   48.42930  236.65300     1
    9      0.00  2020 02 26 17 27   48.46510  236.70000     1
   10      1.90  2020 02 26 17 27   48.42530  236.59500     1
   11      0.00  2020 02 26 17 27   48.41690  236.62000     1
   12      1.30  2020 02 26 17 27   48.43460  236.61200     1
   14      0.70  2020 02 26 17 27   48.43590  236.68900     1
   15      1.20  2020 02 26 17 27   48.41530  236.65199     1
   16      0.00  2020 02 26 17 27   48.45190  236.60699     1
   17      0.00  2020 02 26 17 27   48.46630  236.55800     1
   18      1.10  2020 02 26 17 27   48.48650  236.67599     1
   19      0.00  2020 02 26 17 27   48.41820  236.68600     1
   20      0.00  2020 02 26 17 27   48.47880  236.63499     1
   21      2.30  2020 02 26 17 27   48.47440  236.61900     1
   22      1.80  2020 02 26 17 27   48.45340  236.64101     1
   24      1.20  2020 02 26 17 27   48.48490  236.68600     1
   25      0.00  2020 02 26 17 27   48.44510  236.67200     1
   26      0.00  2020 02 26 17 27   48.45620  236.66200     1
   27      1.70  2020 02 26 17 27   48.47690  236.60899     1
   29      0.00  2020 02 26 17 27   48.43290  236.64900     1
   31      1.30  2020 02 26 17 27   48.42050  236.51401     3
   33      0.00  2020 02 26 17 27   48.46830  236.64101     1
   34      0.00  2020 02 26 17 27   48.45290  236.52299     3
   35      0.00  2020 02 26 17 27   48.44280  236.50400     3
   36      0.90  2020 02 26 17 27   48.36400  236.44600     3
   37      0.00  2020 02 26 17 27   48.37100  236.25000     3
   39      0.00  2020 02 26 17 27   48.46550  236.49400     3
   40      0.70  2020 02 26 17 27   48.45150  236.49500     3
   41      2.50  2020 02 26 17 27   48.42810  236.63400     2
   42      0.80  2020 02 26 17 27   48.56210  236.53400     2
   43      2.90  2020 02 26 17 27   48.45220  236.73300     5
   55      0.00  2020 02 26 17 27   48.44880  236.51401     3
   56      0.00  2020 02 26 17 27   48.45720  236.45100     3
   57      0.00  2020 02 26 17 27   48.42180  236.50500     3
   59      0.00  2020 02 26 17 27   48.38740  236.28300     3
   60      2.60  2020 02 26 17 27   48.43820  236.60400     1
   61      0.00  2020 02 26 17 27   48.52730  236.63000     4
   64      0.00  2020 02 26 17 27   48.50140  236.63901     4
   66      0.40  2020 02 26 17 27   48.52340  236.56700     4
   67      2.50  2020 02 26 17 27   48.65290  236.59599     4
   68      1.70  2020 02 26 17 27   48.56970  236.54700     4
   71      0.00  2020 02 26 17 27   48.53760  236.49899    11
   72      4.70  2020 02 26 17 27   48.29838  236.46838     5
   73      0.00  2020 02 26 17 27   48.45370  236.57899     1
   74      1.40  2020 02 26 17 27   48.44560  236.63901     1
   75      2.30  2020 02 26 17 27   48.42350  236.65300     1
   77      3.30  2020 02 26 17 27   48.46690  236.60800     1
   79      1.00  2020 02 26 17 27   48.47130  236.69299     1
   80      3.30  2020 02 26 17 27   48.48210  236.67000     1
   82      0.00  2020 02 26 17 27   48.46080  236.60699     1
   85      0.50  2020 02 26 17 27   48.82900  235.94800    10
   86      0.80  2020 02 26 17 27   49.22620  235.97301    20
   89      0.80  2020 02 26 17 27   49.31120  235.67300    21
   90      0.00  2020 02 26 17 27   48.45710  236.56300     1
   93      0.00  2020 02 26 17 27   48.65380  236.37601    14
   95      1.00  2020 02 26 17 27   49.34850  235.59900    21
   96      2.60  2020 02 26 17 27   49.44590  235.30099    21
   98      1.00  2020 02 26 17 27   48.41610  236.67000     1
   99      0.00  2020 02 26 17 27   48.51100  236.53600    11
  100      0.00  2020 02 26 17 27   48.48110  236.48700    11
  101      0.00  2020 02 26 17 27   48.51010  236.47600    11
  104      0.00  2020 02 26 17 27   48.42810  236.47099     3
  106      0.40  2020 02 26 17 27   48.38910  236.30400     3
  110      2.20  2020 02 26 17 27   49.27380  235.80901    21
  111      0.00  2020 02 26 17 27   49.31490  235.68800    21
  114      0.00  2020 02 26 17 27   48.88560  236.66600    40
  114      0.00  2020 02 26 17 27   48.88560  236.66600    45
  115      1.50  2020 02 26 17 27   48.43210  236.59801     5
  119      0.00  2020 02 26 17 27   48.90720  236.46100    40
  120      0.00  2020 02 26 17 27   48.77670  236.55299    40
  121      1.00  2020 02 26 17 27   48.85540  236.49300    40
  122      0.00  2020 02 26 17 27   48.85030  236.49400    40
  123      1.50  2020 02 26 17 27   49.15670  236.03101    23
  126      0.00  2020 02 26 17 27   48.78590  236.30499    10
  128      1.10  2020 02 26 17 27   48.43600  236.53700     3
  132      0.00  2020 02 26 17 27   48.61540  236.36900    14
  133      0.00  2020 02 26 17 27   48.65230  236.34900    10
  138      1.30  2020 02 26 17 27   49.15220  236.06200    20
  139      0.50  2020 02 26 17 27   49.23280  236.03200    20
  143      0.10  2020 02 26 17 27   48.46230  236.69099     5
  144      0.00  2020 02 26 17 27   48.43940  236.64999     5
  162      0.80  2020 02 26 17 27   48.45240  236.67101     5
  163      1.20  2020 02 26 17 27   48.46480  236.68600     5
  165      0.70  2020 02 26 17 27   49.26100  235.19299    60
  167      2.70  2020 02 26 17 27   49.15040  234.09500    60
  168      1.70  2020 02 26 17 27   48.93980  234.45500    60
  169      0.10  2020 02 26 17 27   48.43780  236.46700     5
  174      1.80  2020 02 26 17 27   48.62580  236.57700     4
  178      0.70  2020 02 26 17 27   64.06090  225.57001    81
  179      0.00  2020 02 26 17 27   49.78270  233.94901    70
  181      0.00  2020 02 26 17 27   48.38970  236.47800     5
  182      1.40  2020 02 26 17 27   49.20990  236.04500    23
  184      0.00  2020 02 26 17 27   49.21830  235.19200    23
  188      1.70  2020 02 26 17 27   48.66570  236.58200     4
  189      1.00  2020 02 26 17 27   49.70950  235.08600    30
  190      0.00  2020 02 26 17 27   49.68220  235.00101    30
  191      0.00  2020 02 26 17 27   49.62120  234.96700    30
  192      1.30  2020 02 26 17 27   49.53550  235.18401    30
  194      0.00  2020 02 26 17 27   49.85610  234.88100    30
  197      0.40  2020 02 26 17 27   48.52190  236.58000     5
  199      6.60  2020 02 26 17 27   48.39510  236.69501     5
  200      0.10  2020 02 26 17 27   48.48800  236.67300     5
  204      0.00  2020 02 26 17 27   49.94130  234.80499    35
  205      0.00  2020 02 26 17 27   49.96700  234.78400    35
  206      2.50  2020 02 26 17 27   49.97270  234.76100    35
  208      1.20  2020 02 26 17 27   50.02360  234.72600    35
  209      3.00  2020 02 26 17 27   50.01920  234.74800    35
  210      0.70  2020 02 26 17 27   50.02080  234.75400    35
  212      2.20  2020 02 26 17 27   50.37740  234.04201    35
  213      2.60  2020 02 26 17 27   50.01380  234.75000    35
  215      0.00  2020 02 26 17 27   48.46180  236.59500     5
  216      0.00  2020 02 26 17 27   49.17440  237.15300    80
  217      3.20  2020 02 26 17 27   48.45190  236.70399     5
  218      1.80  2020 02 26 17 27   49.32200  235.65700    21
  227      0.60  2020 02 26 17 27   48.52524  236.61111     5
  228      2.00  2020 02 26 17 27   48.43951  236.62003     5
  234      0.50  2020 02 26 17 27   48.88760  236.62149    45
  235      0.00  2020 02 26 17 27   48.92833  236.53203    45
  236      0.50  2020 02 26 17 27   48.90087  236.65764    45
  237      0.00  2020 02 26 17 27   48.96380  236.44890    45
  238      0.00  2020 02 26 17 27   48.88512  236.64799    45
winddir
    1    209.00  2020 02 26 17 27   48.46990  236.68100     5
    3    147.00  2020 02 26 17 27   48.47760  236.58299     1
    4    181.00  2020 02 26 17 27   48.44080  236.66100     1
    5    183.00  2020 02 26 17 27   48.46600  236.66299     1
    6    180.00  2020 02 26 17 27   48.46160  236.59200     1
    7    167.00  2020 02 26 17 27   48.46550  236.67900     1
    8    139.00  2020 02 26 17 27   48.42930  236.65300     1
    9    177.00  2020 02 26 17 27   48.46510  236.70000     1
   10    194.00  2020 02 26 17 27   48.42530  236.59500     1
   11    158.00  2020 02 26 17 27   48.41690  236.62000     1
   12    185.00  2020 02 26 17 27   48.43460  236.61200     1
   14    223.00  2020 02 26 17 27   48.43590  236.68900     1
   15    156.00  2020 02 26 17 27   48.41530  236.65199     1
   16    130.00  2020 02 26 17 27   48.45190  236.60699     1
   17    169.00  2020 02 26 17 27   48.46630  236.55800     1
   18    216.00  2020 02 26 17 27   48.48650  236.67599     1
   19    163.00  2020 02 26 17 27   48.41820  236.68600     1
   20    164.00  2020 02 26 17 27   48.47880  236.63499     1
   21    195.00  2020 02 26 17 27   48.47440  236.61900     1
   22    360.00  2020 02 26 17 27   48.45340  236.64101     1
   24    194.00  2020 02 26 17 27   48.48490  236.68600     1
   25     78.00  2020 02 26 17 27   48.44510  236.67200     1
   26    198.00  2020 02 26 17 27   48.45620  236.66200     1
   27    198.00  2020 02 26 17 27   48.47690  236.60899     1
   29    208.00  2020 02 26 17 27   48.43290  236.64900     1
   31    207.00  2020 02 26 17 27   48.42050  236.51401     3
   32     63.00  2020 02 26 17 27   48.43560  236.51401     3
   33    182.00  2020 02 26 17 27   48.46830  236.64101     1
   34    360.00  2020 02 26 17 27   48.45290  236.52299     3
   35     42.00  2020 02 26 17 27   48.44280  236.50400     3
   36    197.00  2020 02 26 17 27   48.36400  236.44600     3
   37    205.00  2020 02 26 17 27   48.37100  236.25000     3
   39     26.00  2020 02 26 17 27   48.46550  236.49400     3
   40     51.00  2020 02 26 17 27   48.45150  236.49500     3
   41    141.00  2020 02 26 17 27   48.42810  236.63400     2
   42    132.00  2020 02 26 17 27   48.56210  236.53400     2
   43    181.00  2020 02 26 17 27   48.45220  236.73300     5
   55     19.00  2020 02 26 17 27   48.44880  236.51401     3
   56    175.00  2020 02 26 17 27   48.45720  236.45100     3
   57    221.00  2020 02 26 17 27   48.42180  236.50500     3
   59    188.00  2020 02 26 17 27   48.38740  236.28300     3
   60    168.00  2020 02 26 17 27   48.43820  236.60400     1
   61    140.00  2020 02 26 17 27   48.52730  236.63000     4
   64    192.00  2020 02 26 17 27   48.50140  236.63901     4
   66    204.00  2020 02 26 17 27   48.52340  236.56700     4
   67     62.00  2020 02 26 17 27   48.65290  236.59599     4
   68    114.00  2020 02 26 17 27   48.56970  236.54700     4
   71    219.00  2020 02 26 17 27   48.53760  236.49899    11
   72    148.00  2020 02 26 17 27   48.29838  236.46838     5
   73    221.00  2020 02 26 17 27   48.45370  236.57899     1
   74    162.00  2020 02 26 17 27   48.44560  236.63901     1
   75    217.00  2020 02 26 17 27   48.42350  236.65300     1
   77    180.00  2020 02 26 17 27   48.46690  236.60800     1
   79     56.00  2020 02 26 17 27   48.47130  236.69299     1
   80    172.00  2020 02 26 17 27   48.48210  236.67000     1
   82    130.00  2020 02 26 17 27   48.46080  236.60699     1
   85    311.00  2020 02 26 17 27   48.82900  235.94800    10
   86    133.00  2020 02 26 17 27   49.22620  235.97301    20
   89     75.00  2020 02 26 17 27   49.31120  235.67300    21
   90    360.00  2020 02 26 17 27   48.45710  236.56300     1
   93     46.00  2020 02 26 17 27   48.65380  236.37601    14
   95     49.00  2020 02 26 17 27   49.34850  235.59900    21
   96    133.00  2020 02 26 17 27   49.44590  235.30099    21
   98    196.00  2020 02 26 17 27   48.41610  236.67000     1
   99     97.00  2020 02 26 17 27   48.51100  236.53600    11
  100    319.00  2020 02 26 17 27   48.48110  236.48700    11
  101    101.00  2020 02 26 17 27   48.51010  236.47600    11
  104    360.00  2020 02 26 17 27   48.42810  236.47099     3
  106    159.00  2020 02 26 17 27   48.38910  236.30400     3
  110     76.00  2020 02 26 17 27   49.27380  235.80901    21
  111    115.00  2020 02 26 17 27   49.31490  235.68800    21
  114     86.00  2020 02 26 17 27   48.88560  236.66600    45
  114     86.00  2020 02 26 17 27   48.88560  236.66600    40
  115    360.00  2020 02 26 17 27   48.43210  236.59801     5
  119     96.00  2020 02 26 17 27   48.90720  236.46100    40
  120    150.00  2020 02 26 17 27   48.77670  236.55299    40
  121    115.00  2020 02 26 17 27   48.85540  236.49300    40
  122    108.00  2020 02 26 17 27   48.85030  236.49400    40
  123    128.00  2020 02 26 17 27   49.15670  236.03101    23
  126    360.00  2020 02 26 17 27   48.78590  236.30499    10
  128    134.00  2020 02 26 17 27   48.43600  236.53700     3
  132    250.00  2020 02 26 17 27   48.61540  236.36900    14
  133    300.00  2020 02 26 17 27   48.65230  236.34900    10
  138    118.00  2020 02 26 17 27   49.15220  236.06200    20
  139    108.00  2020 02 26 17 27   49.23280  236.03200    20
  143    192.00  2020 02 26 17 27   48.46230  236.69099     5
  144    204.00  2020 02 26 17 27   48.43940  236.64999     5
  162    143.00  2020 02 26 17 27   48.45240  236.67101     5
  163    159.00  2020 02 26 17 27   48.46480  236.68600     5
  165    211.00  2020 02 26 17 27   49.26100  235.19299    60
  167    132.00  2020 02 26 17 27   49.15040  234.09500    60
  168     86.00  2020 02 26 17 27   48.93980  234.45500    60
  169     69.00  2020 02 26 17 27   48.43780  236.46700     5
  174    180.00  2020 02 26 17 27   48.62580  236.57700     4
  178    333.00  2020 02 26 17 27   64.06090  225.57001    81
  179    261.00  2020 02 26 17 27   49.78270  233.94901    70
  181    171.00  2020 02 26 17 27   48.38970  236.47800     5
  182    360.00  2020 02 26 17 27   49.20990  236.04500    23
  184    175.00  2020 02 26 17 27   49.21830  235.19200    23
  188    100.00  2020 02 26 17 27   48.66570  236.58200     4
  189    159.00  2020 02 26 17 27   49.70950  235.08600    30
  190    155.00  2020 02 26 17 27   49.68220  235.00101    30
  191    122.00  2020 02 26 17 27   49.62120  234.96700    30
  192    127.00  2020 02 26 17 27   49.53550  235.18401    30
  194    160.00  2020 02 26 17 27   49.85610  234.88100    30
  197    230.00  2020 02 26 17 27   48.52190  236.58000     5
  199    213.00  2020 02 26 17 27   48.39510  236.69501     5
  200     80.00  2020 02 26 17 27   48.48800  236.67300     5
  204     35.00  2020 02 26 17 27   49.94130  234.80499    35
  205     91.00  2020 02 26 17 27   49.96700  234.78400    35
  206    172.00  2020 02 26 17 27   49.97270  234.76100    35
  208    157.00  2020 02 26 17 27   50.02360  234.72600    35
  209    176.00  2020 02 26 17 27   50.01920  234.74800    35
  210    128.00  2020 02 26 17 27   50.02080  234.75400    35
  212    141.00  2020 02 26 17 27   50.37740  234.04201    35
  213    118.00  2020 02 26 17 27   50.01380  234.75000    35
  215    192.00  2020 02 26 17 27   48.46180  236.59500     5
  216     86.00  2020 02 26 17 27   49.17440  237.15300    80
  217    120.00  2020 02 26 17 27   48.45190  236.70399     5
  218    103.00  2020 02 26 17 27   49.32200  235.65700    21
  227    184.00  2020 02 26 17 27   48.52524  236.61111     5
  228    210.00  2020 02 26 17 27   48.43951  236.62003     5
  234    210.00  2020 02 26 17 27   48.88760  236.62149    45
  235    156.00  2020 02 26 17 27   48.92833  236.53203    45
  236    360.00  2020 02 26 17 27   48.90087  236.65764    45
  237     51.00  2020 02 26 17 27   48.96380  236.44890    45
  238    120.00  2020 02 26 17 27   48.88512  236.64799    45
solar
    1     25.00  2020 02 26 17 27   48.46990  236.68100     5
    3     29.00  2020 02 26 17 27   48.47760  236.58299     1
    4     25.00  2020 02 26 17 27   48.44080  236.66100     1
    5     23.00  2020 02 26 17 27   48.46600  236.66299     1
    6     27.00  2020 02 26 17 27   48.46160  236.59200     1
    7     25.00  2020 02 26 17 27   48.46550  236.67900     1
    8     25.00  2020 02 26 17 27   48.42930  236.65300     1
    9     19.00  2020 02 26 17 27   48.46510  236.70000     1
   10     26.00  2020 02 26 17 27   48.42530  236.59500     1
   11     26.00  2020 02 26 17 27   48.41690  236.62000     1
   12     26.00  2020 02 26 17 27   48.43460  236.61200     1
   14     18.00  2020 02 26 17 27   48.43590  236.68900     1
   15     26.00  2020 02 26 17 27   48.41530  236.65199     1
   16     30.00  2020 02 26 17 27   48.45190  236.60699     1
   17     27.00  2020 02 26 17 27   48.46630  236.55800     1
   18     23.00  2020 02 26 17 27   48.48650  236.67599     1
   19     23.00  2020 02 26 17 27   48.41820  236.68600     1
   20     25.00  2020 02 26 17 27   48.47880  236.63499     1
   21     27.00  2020 02 26 17 27   48.47440  236.61900     1
   22     26.00  2020 02 26 17 27   48.45340  236.64101     1
   24     21.00  2020 02 26 17 27   48.48490  236.68600     1
   25     21.00  2020 02 26 17 27   48.44510  236.67200     1
   26     23.00  2020 02 26 17 27   48.45620  236.66200     1
   27     28.00  2020 02 26 17 27   48.47690  236.60899     1
   29     28.00  2020 02 26 17 27   48.43290  236.64900     1
   31     27.00  2020 02 26 17 27   48.42050  236.51401     3
   32     26.00  2020 02 26 17 27   48.43560  236.51401     3
   33     22.00  2020 02 26 17 27   48.46830  236.64101     1
   34     26.00  2020 02 26 17 27   48.45290  236.52299     3
   35     25.00  2020 02 26 17 27   48.44280  236.50400     3
   36     23.00  2020 02 26 17 27   48.36400  236.44600     3
   37     14.00  2020 02 26 17 27   48.37100  236.25000     3
   39     24.00  2020 02 26 17 27   48.46550  236.49400     3
   40     24.00  2020 02 26 17 27   48.45150  236.49500     3
   42     23.00  2020 02 26 17 27   48.56210  236.53400     2
   55     27.00  2020 02 26 17 27   48.44880  236.51401     3
   56     23.00  2020 02 26 17 27   48.45720  236.45100     3
   57     30.00  2020 02 26 17 27   48.42180  236.50500     3
   59     16.00  2020 02 26 17 27   48.38740  236.28300     3
   60     27.00  2020 02 26 17 27   48.43820  236.60400     1
   61     23.00  2020 02 26 17 27   48.52730  236.63000     4
   64     23.00  2020 02 26 17 27   48.50140  236.63901     4
   66     26.00  2020 02 26 17 27   48.52340  236.56700     4
   67     11.00  2020 02 26 17 27   48.65290  236.59599     4
   68     24.00  2020 02 26 17 27   48.56970  236.54700     4
   71     19.00  2020 02 26 17 27   48.53760  236.49899    11
   72     30.00  2020 02 26 17 27   48.29838  236.46838     5
   73     25.00  2020 02 26 17 27   48.45370  236.57899     1
   74     26.00  2020 02 26 17 27   48.44560  236.63901     1
   75     25.00  2020 02 26 17 27   48.42350  236.65300     1
   77     26.00  2020 02 26 17 27   48.46690  236.60800     1
   79     23.00  2020 02 26 17 27   48.47130  236.69299     1
   80     23.00  2020 02 26 17 27   48.48210  236.67000     1
   82     29.00  2020 02 26 17 27   48.46080  236.60699     1
   85     14.00  2020 02 26 17 27   48.82900  235.94800    10
   86     25.00  2020 02 26 17 27   49.22620  235.97301    20
   89     16.00  2020 02 26 17 27   49.31120  235.67300    21
   90     24.00  2020 02 26 17 27   48.45710  236.56300     1
   93     14.00  2020 02 26 17 27   48.65380  236.37601    14
   95     20.00  2020 02 26 17 27   49.34850  235.59900    21
   96     12.00  2020 02 26 17 27   49.44590  235.30099    21
   98     23.00  2020 02 26 17 27   48.41610  236.67000     1
   99     19.00  2020 02 26 17 27   48.51100  236.53600    11
  100      7.00  2020 02 26 17 27   48.48110  236.48700    11
  101     21.00  2020 02 26 17 27   48.51010  236.47600    11
  104     24.00  2020 02 26 17 27   48.42810  236.47099     3
  106     19.00  2020 02 26 17 27   48.38910  236.30400     3
  107     25.00  2020 02 26 17 27   48.46610  236.50400     3
  110     16.00  2020 02 26 17 27   49.27380  235.80901    21
  111     16.00  2020 02 26 17 27   49.31490  235.68800    21
  114     11.00  2020 02 26 17 27   48.88560  236.66600    45
  114     11.00  2020 02 26 17 27   48.88560  236.66600    40
  115     28.00  2020 02 26 17 27   48.43210  236.59801     5
  119      9.00  2020 02 26 17 27   48.90720  236.46100    40
  120     11.00  2020 02 26 17 27   48.77670  236.55299    40
  121      9.00  2020 02 26 17 27   48.85540  236.49300    40
  122      9.00  2020 02 26 17 27   48.85030  236.49400    40
  123     14.00  2020 02 26 17 27   49.15670  236.03101    23
  126      9.00  2020 02 26 17 27   48.78590  236.30499    10
  128     28.00  2020 02 26 17 27   48.43600  236.53700     3
  132     11.00  2020 02 26 17 27   48.61540  236.36900    14
  133     14.00  2020 02 26 17 27   48.65230  236.34900    10
  134     28.00  2020 02 26 17 27   48.46480  236.62601     5
  138     11.00  2020 02 26 17 27   49.15220  236.06200    20
  139     19.00  2020 02 26 17 27   49.23280  236.03200    20
  143     23.00  2020 02 26 17 27   48.46230  236.69099     5
  144     23.00  2020 02 26 17 27   48.43940  236.64999     5
  162     21.00  2020 02 26 17 27   48.45240  236.67101     5
  163     23.00  2020 02 26 17 27   48.46480  236.68600     5
  165      0.00  2020 02 26 17 27   49.26100  235.19299    60
  167      0.00  2020 02 26 17 27   49.15040  234.09500    60
  168      7.00  2020 02 26 17 27   48.93980  234.45500    60
  169     20.00  2020 02 26 17 27   48.43780  236.46700     5
  174     16.00  2020 02 26 17 27   48.62580  236.57700     4
  178     11.00  2020 02 26 17 27   64.06090  225.57001    81
  179      0.00  2020 02 26 17 27   49.78270  233.94901    70
  181     24.00  2020 02 26 17 27   48.38970  236.47800     5
  182     16.00  2020 02 26 17 27   49.20990  236.04500    23
  184      5.00  2020 02 26 17 27   49.21830  235.19200    23
  188     12.00  2020 02 26 17 27   48.66570  236.58200     4
  189      7.00  2020 02 26 17 27   49.70950  235.08600    30
  190      5.00  2020 02 26 17 27   49.68220  235.00101    30
  191     19.00  2020 02 26 17 27   49.62120  234.96700    30
  192     12.00  2020 02 26 17 27   49.53550  235.18401    30
  194      9.00  2020 02 26 17 27   49.85610  234.88100    30
  197     26.00  2020 02 26 17 27   48.52190  236.58000     5
  199     21.00  2020 02 26 17 27   48.39510  236.69501     5
  200     21.00  2020 02 26 17 27   48.48800  236.67300     5
  204      9.00  2020 02 26 17 27   49.94130  234.80499    35
  205      5.00  2020 02 26 17 27   49.96700  234.78400    35
  206      5.00  2020 02 26 17 27   49.97270  234.76100    35
  208      7.00  2020 02 26 17 27   50.02360  234.72600    35
  209      5.00  2020 02 26 17 27   50.01920  234.74800    35
  210      5.00  2020 02 26 17 27   50.02080  234.75400    35
  212      6.00  2020 02 26 17 27   50.37740  234.04201    35
  215     32.00  2020 02 26 17 27   48.46180  236.59500     5
  216     19.00  2020 02 26 17 27   49.17440  237.15300    80
  217     26.00  2020 02 26 17 27   48.45190  236.70399     5
  218     18.00  2020 02 26 17 27   49.32200  235.65700    21
  227     22.00  2020 02 26 17 27   48.52524  236.61111     5
  228     28.00  2020 02 26 17 27   48.43951  236.62003     5
  234      7.00  2020 02 26 17 27   48.88760  236.62149    45
  235     11.00  2020 02 26 17 27   48.92833  236.53203    45
  236      7.00  2020 02 26 17 27   48.90087  236.65764    45
uv
    3      0.00  2020 02 26 17 27   48.47760  236.58299     1
    4      0.00  2020 02 26 17 27   48.44080  236.66100     1
    5      0.00  2020 02 26 17 27   48.46600  236.66299     1
    6      0.00  2020 02 26 17 27   48.46160  236.59200     1
    7      0.00  2020 02 26 17 27   48.46550  236.67900     1
    8      0.00  2020 02 26 17 27   48.42930  236.65300     1
    9      0.00  2020 02 26 17 27   48.46510  236.70000     1
   10      0.00  2020 02 26 17 27   48.42530  236.59500     1
   11      0.00  2020 02 26 17 27   48.41690  236.62000     1
   12      0.00  2020 02 26 17 27   48.43460  236.61200     1
   14      0.00  2020 02 26 17 27   48.43590  236.68900     1
   15      0.00  2020 02 26 17 27   48.41530  236.65199     1
   16      0.00  2020 02 26 17 27   48.45190  236.60699     1
   17      0.00  2020 02 26 17 27   48.46630  236.55800     1
   18      0.00  2020 02 26 17 27   48.48650  236.67599     1
   19      0.00  2020 02 26 17 27   48.41820  236.68600     1
   20      0.00  2020 02 26 17 27   48.47880  236.63499     1
   21      0.00  2020 02 26 17 27   48.47440  236.61900     1
   22      0.00  2020 02 26 17 27   48.45340  236.64101     1
   24      0.00  2020 02 26 17 27   48.48490  236.68600     1
   25      0.00  2020 02 26 17 27   48.44510  236.67200     1
   26      0.00  2020 02 26 17 27   48.45620  236.66200     1
   27      0.00  2020 02 26 17 27   48.47690  236.60899     1
   29      0.00  2020 02 26 17 27   48.43290  236.64900     1
   31      0.00  2020 02 26 17 27   48.42050  236.51401     3
   32      0.00  2020 02 26 17 27   48.43560  236.51401     3
   33      0.00  2020 02 26 17 27   48.46830  236.64101     1
   34      0.00  2020 02 26 17 27   48.45290  236.52299     3
   35      0.00  2020 02 26 17 27   48.44280  236.50400     3
   36      0.00  2020 02 26 17 27   48.36400  236.44600     3
   37      0.00  2020 02 26 17 27   48.37100  236.25000     3
   39      0.00  2020 02 26 17 27   48.46550  236.49400     3
   40      0.00  2020 02 26 17 27   48.45150  236.49500     3
   42      0.00  2020 02 26 17 27   48.56210  236.53400     2
   55      0.00  2020 02 26 17 27   48.44880  236.51401     3
   56      0.00  2020 02 26 17 27   48.45720  236.45100     3
   59      0.00  2020 02 26 17 27   48.38740  236.28300     3
   60      0.00  2020 02 26 17 27   48.43820  236.60400     1
   61      0.00  2020 02 26 17 27   48.52730  236.63000     4
   64      0.00  2020 02 26 17 27   48.50140  236.63901     4
   66      0.00  2020 02 26 17 27   48.52340  236.56700     4
   67      0.00  2020 02 26 17 27   48.65290  236.59599     4
   68      0.00  2020 02 26 17 27   48.56970  236.54700     4
   71      0.00  2020 02 26 17 27   48.53760  236.49899    11
   72      0.00  2020 02 26 17 27   48.29838  236.46838     5
   73      0.00  2020 02 26 17 27   48.45370  236.57899     1
   74      0.00  2020 02 26 17 27   48.44560  236.63901     1
   75      0.00  2020 02 26 17 27   48.42350  236.65300     1
   77      0.00  2020 02 26 17 27   48.46690  236.60800     1
   79      0.00  2020 02 26 17 27   48.47130  236.69299     1
   80      0.00  2020 02 26 17 27   48.48210  236.67000     1
   82      0.00  2020 02 26 17 27   48.46080  236.60699     1
   85      0.00  2020 02 26 17 27   48.82900  235.94800    10
   86      0.00  2020 02 26 17 27   49.22620  235.97301    20
   89      0.00  2020 02 26 17 27   49.31120  235.67300    21
   90      0.00  2020 02 26 17 27   48.45710  236.56300     1
   93      0.00  2020 02 26 17 27   48.65380  236.37601    14
   95      0.00  2020 02 26 17 27   49.34850  235.59900    21
   96      0.00  2020 02 26 17 27   49.44590  235.30099    21
   98      0.00  2020 02 26 17 27   48.41610  236.67000     1
   99      0.00  2020 02 26 17 27   48.51100  236.53600    11
  101      0.00  2020 02 26 17 27   48.51010  236.47600    11
  104      0.00  2020 02 26 17 27   48.42810  236.47099     3
  106      0.00  2020 02 26 17 27   48.38910  236.30400     3
  110      0.00  2020 02 26 17 27   49.27380  235.80901    21
  111      0.00  2020 02 26 17 27   49.31490  235.68800    21
  114      0.00  2020 02 26 17 27   48.88560  236.66600    45
  114      0.00  2020 02 26 17 27   48.88560  236.66600    40
  115      0.00  2020 02 26 17 27   48.43210  236.59801     5
  119      0.00  2020 02 26 17 27   48.90720  236.46100    40
  120      0.00  2020 02 26 17 27   48.77670  236.55299    40
  121      0.00  2020 02 26 17 27   48.85540  236.49300    40
  122      0.00  2020 02 26 17 27   48.85030  236.49400    40
  123      0.00  2020 02 26 17 27   49.15670  236.03101    23
  126      0.00  2020 02 26 17 27   48.78590  236.30499    10
  128      0.00  2020 02 26 17 27   48.43600  236.53700     3
  132      0.00  2020 02 26 17 27   48.61540  236.36900    14
  134      0.00  2020 02 26 17 27   48.46480  236.62601     5
  138      0.00  2020 02 26 17 27   49.15220  236.06200    20
  139      0.00  2020 02 26 17 27   49.23280  236.03200    20
  143      0.00  2020 02 26 17 27   48.46230  236.69099     5
  144      0.00  2020 02 26 17 27   48.43940  236.64999     5
  162      0.00  2020 02 26 17 27   48.45240  236.67101     5
  163      0.00  2020 02 26 17 27   48.46480  236.68600     5
  165      0.00  2020 02 26 17 27   49.26100  235.19299    60
  167      0.00  2020 02 26 17 27   49.15040  234.09500    60
  168      0.00  2020 02 26 17 27   48.93980  234.45500    60
  169      0.00  2020 02 26 17 27   48.43780  236.46700     5
  174      0.00  2020 02 26 17 27   48.62580  236.57700     4
  179      0.00  2020 02 26 17 27   49.78270  233.94901    70
  181      0.00  2020 02 26 17 27   48.38970  236.47800     5
  182      0.00  2020 02 26 17 27   49.20990  236.04500    23
  184      0.00  2020 02 26 17 27   49.21830  235.19200    23
  188      0.00  2020 02 26 17 27   48.66570  236.58200     4
  189      0.00  2020 02 26 17 27   49.70950  235.08600    30
  190      0.00  2020 02 26 17 27   49.68220  235.00101    30
  191      0.00  2020 02 26 17 27   49.62120  234.96700    30
  192      0.00  2020 02 26 17 27   49.53550  235.18401    30
  194      0.00  2020 02 26 17 27   49.85610  234.88100    30
  197      0.00  2020 02 26 17 27   48.52190  236.58000     5
  199      0.00  2020 02 26 17 27   48.39510  236.69501     5
  200      0.00  2020 02 26 17 27   48.48800  236.67300     5
  204      0.00  2020 02 26 17 27   49.94130  234.80499    35
  205      0.00  2020 02 26 17 27   49.96700  234.78400    35
  206      0.00  2020 02 26 17 27   49.97270  234.76100    35
  208      0.00  2020 02 26 17 27   50.02360  234.72600    35
  209      0.00  2020 02 26 17 27   50.01920  234.74800    35
  210      0.00  2020 02 26 17 27   50.02080  234.75400    35
  212      0.00  2020 02 26 17 27   50.37740  234.04201    35
  215      0.00  2020 02 26 17 27   48.46180  236.59500     5
  217      0.00  2020 02 26 17 27   48.45190  236.70399     5
  218      0.00  2020 02 26 17 27   49.32200  235.65700    21
  227      0.00  2020 02 26 17 27   48.52524  236.61111     5
  228      0.00  2020 02 26 17 27   48.43951  236.62003     5
  234      0.00  2020 02 26 17 27   48.88760  236.62149    45
  235      0.00  2020 02 26 17 27   48.92833  236.53203    45
  236      0.00  2020 02 26 17 27   48.90087  236.65764    45
raintotal
    1      0.20  2020 02 26 17 27   48.46990  236.68100     5
    3      0.20  2020 02 26 17 27   48.47760  236.58299     1
    4      0.20  2020 02 26 17 27   48.44080  236.66100     1
    5      0.50  2020 02 26 17 27   48.46600  236.66299     1
    6      0.20  2020 02 26 17 27   48.46160  236.59200     1
    7      0.20  2020 02 26 17 27   48.46550  236.67900     1
    8      0.20  2020 02 26 17 27   48.42930  236.65300     1
    9      0.20  2020 02 26 17 27   48.46510  236.70000     1
   10      0.20  2020 02 26 17 27   48.42530  236.59500     1
   11      0.00  2020 02 26 17 27   48.41690  236.62000     1
   12      0.20  2020 02 26 17 27   48.43460  236.61200     1
   13      0.00  2020 02 26 17 27   48.45330  236.57401     1
   14      0.20  2020 02 26 17 27   48.43590  236.68900     1
   15      0.00  2020 02 26 17 27   48.41530  236.65199     1
   16      0.20  2020 02 26 17 27   48.45190  236.60699     1
   17      0.20  2020 02 26 17 27   48.46630  236.55800     1
   18      0.50  2020 02 26 17 27   48.48650  236.67599     1
   19      0.00  2020 02 26 17 27   48.41820  236.68600     1
   20      0.20  2020 02 26 17 27   48.47880  236.63499     1
   21      0.20  2020 02 26 17 27   48.47440  236.61900     1
   22      0.20  2020 02 26 17 27   48.45340  236.64101     1
   24      0.20  2020 02 26 17 27   48.48490  236.68600     1
   25      0.00  2020 02 26 17 27   48.44510  236.67200     1
   26      0.00  2020 02 26 17 27   48.45620  236.66200     1
   27      0.20  2020 02 26 17 27   48.47690  236.60899     1
   29      0.20  2020 02 26 17 27   48.43290  236.64900     1
   31      0.00  2020 02 26 17 27   48.42050  236.51401     3
   32      0.20  2020 02 26 17 27   48.43560  236.51401     3
   33      0.20  2020 02 26 17 27   48.46830  236.64101     1
   34      0.20  2020 02 26 17 27   48.45290  236.52299     3
   35      0.00  2020 02 26 17 27   48.44280  236.50400     3
   36      0.00  2020 02 26 17 27   48.36400  236.44600     3
   37      0.20  2020 02 26 17 27   48.37100  236.25000     3
   39      0.00  2020 02 26 17 27   48.46550  236.49400     3
   40      0.20  2020 02 26 17 27   48.45150  236.49500     3
   42      0.20  2020 02 26 17 27   48.56210  236.53400     2
   43      0.00  2020 02 26 17 27   48.45220  236.73300     5
   55      0.20  2020 02 26 17 27   48.44880  236.51401     3
   56      0.20  2020 02 26 17 27   48.45720  236.45100     3
   57      0.00  2020 02 26 17 27   48.42180  236.50500     3
   59      0.00  2020 02 26 17 27   48.38740  236.28300     3
   60      0.20  2020 02 26 17 27   48.43820  236.60400     1
   61      0.20  2020 02 26 17 27   48.52730  236.63000     4
   62      0.00  2020 02 26 17 27   48.68040  236.54300     4
   64      0.20  2020 02 26 17 27   48.50140  236.63901     4
   66      0.20  2020 02 26 17 27   48.52340  236.56700     4
   67      0.20  2020 02 26 17 27   48.65290  236.59599     4
   68      0.20  2020 02 26 17 27   48.56970  236.54700     4
   71      0.00  2020 02 26 17 27   48.53760  236.49899    11
   72      0.00  2020 02 26 17 27   48.29838  236.46838     5
   73      0.00  2020 02 26 17 27   48.45370  236.57899     1
   74      0.20  2020 02 26 17 27   48.44560  236.63901     1
   75      0.20  2020 02 26 17 27   48.42350  236.65300     1
   77      0.50  2020 02 26 17 27   48.46690  236.60800     1
   79      0.20  2020 02 26 17 27   48.47130  236.69299     1
   80      0.00  2020 02 26 17 27   48.48210  236.67000     1
   82      0.20  2020 02 26 17 27   48.46080  236.60699     1
   85      0.20  2020 02 26 17 27   48.82900  235.94800    10
   86      0.20  2020 02 26 17 27   49.22620  235.97301    20
   89      0.00  2020 02 26 17 27   49.31120  235.67300    21
   90      0.00  2020 02 26 17 27   48.45710  236.56300     1
   93      0.00  2020 02 26 17 27   48.65380  236.37601    14
   95      0.00  2020 02 26 17 27   49.34850  235.59900    21
   96      0.00  2020 02 26 17 27   49.44590  235.30099    21
   98      0.00  2020 02 26 17 27   48.41610  236.67000     1
   99      0.20  2020 02 26 17 27   48.51100  236.53600    11
  100      0.00  2020 02 26 17 27   48.48110  236.48700    11
  101      0.00  2020 02 26 17 27   48.51010  236.47600    11
  104      0.20  2020 02 26 17 27   48.42810  236.47099     3
  106      0.00  2020 02 26 17 27   48.38910  236.30400     3
  107      0.00  2020 02 26 17 27   48.46610  236.50400     3
  109      0.00  2020 02 26 17 27   48.57450  236.55400     4
  110      0.00  2020 02 26 17 27   49.27380  235.80901    21
  111      0.00  2020 02 26 17 27   49.31490  235.68800    21
  114      0.20  2020 02 26 17 27   48.88560  236.66600    45
  114      0.20  2020 02 26 17 27   48.88560  236.66600    40
  115      0.20  2020 02 26 17 27   48.43210  236.59801     5
  119      0.00  2020 02 26 17 27   48.90720  236.46100    40
  120      0.00  2020 02 26 17 27   48.77670  236.55299    40
  121      0.00  2020 02 26 17 27   48.85540  236.49300    40
  122      0.00  2020 02 26 17 27   48.85030  236.49400    40
  123      0.00  2020 02 26 17 27   49.15670  236.03101    23
  126      0.00  2020 02 26 17 27   48.78590  236.30499    10
  128      0.20  2020 02 26 17 27   48.43600  236.53700     3
  132      0.00  2020 02 26 17 27   48.61540  236.36900    14
  133      0.00  2020 02 26 17 27   48.65230  236.34900    10
  134      0.50  2020 02 26 17 27   48.46480  236.62601     5
  138      0.00  2020 02 26 17 27   49.15220  236.06200    20
  139      0.00  2020 02 26 17 27   49.23280  236.03200    20
  143      0.00  2020 02 26 17 27   48.46230  236.69099     5
  144      0.20  2020 02 26 17 27   48.43940  236.64999     5
  160      0.00  2020 02 26 17 27   48.65680  236.35699    14
  162      0.00  2020 02 26 17 27   48.45240  236.67101     5
  163      0.20  2020 02 26 17 27   48.46480  236.68600     5
  165      0.80  2020 02 26 17 27   49.26100  235.19299    60
  167      4.10  2020 02 26 17 27   49.15040  234.09500    60
  168      1.30  2020 02 26 17 27   48.93980  234.45500    60
  169      0.00  2020 02 26 17 27   48.43780  236.46700     5
  174      0.40  2020 02 26 17 27   48.62580  236.57700     4
  178      0.00  2020 02 26 17 27   64.06090  225.57001    81
  179      3.00  2020 02 26 17 27   49.78270  233.94901    70
  180      0.20  2020 02 26 17 27   49.92680  233.34801    70
  181      0.20  2020 02 26 17 27   48.38970  236.47800     5
  182      0.00  2020 02 26 17 27   49.20990  236.04500    23
  188      0.50  2020 02 26 17 27   48.66570  236.58200     4
  189      0.00  2020 02 26 17 27   49.70950  235.08600    30
  190      0.00  2020 02 26 17 27   49.68220  235.00101    30
  191      0.00  2020 02 26 17 27   49.62120  234.96700    30
  192      0.00  2020 02 26 17 27   49.53550  235.18401    30
  194      0.00  2020 02 26 17 27   49.85610  234.88100    30
  197      0.40  2020 02 26 17 27   48.52190  236.58000     5
  199      0.00  2020 02 26 17 27   48.39510  236.69501     5
  200      0.20  2020 02 26 17 27   48.48800  236.67300     5
  204      0.00  2020 02 26 17 27   49.94130  234.80499    35
  205      0.00  2020 02 26 17 27   49.96700  234.78400    35
  206      0.00  2020 02 26 17 27   49.97270  234.76100    35
  208      0.80  2020 02 26 17 27   50.02360  234.72600    35
  209      0.80  2020 02 26 17 27   50.01920  234.74800    35
  210      0.00  2020 02 26 17 27   50.02080  234.75400    35
  211      0.00  2020 02 26 17 27   50.05990  235.01700    35
  212      0.50  2020 02 26 17 27   50.37740  234.04201    35
  213      0.20  2020 02 26 17 27   50.01380  234.75000    35
  215      0.20  2020 02 26 17 27   48.46180  236.59500     5
  216      1.00  2020 02 26 17 27   49.17440  237.15300    80
  217      0.00  2020 02 26 17 27   48.45190  236.70399     5
  218      0.00  2020 02 26 17 27   49.32200  235.65700    21
  227      0.20  2020 02 26 17 27   48.52524  236.61111     5
  228      0.20  2020 02 26 17 27   48.43951  236.62003     5
  234      0.00  2020 02 26 17 27   48.88760  236.62149    45
  235      0.00  2020 02 26 17 27   48.92833  236.53203    45
  236      0.00  2020 02 26 17 27   48.90087  236.65764    45
  237      0.00  2020 02 26 17 27   48.96380  236.44890    45
  238      0.00  2020 02 26 17 27   48.88512  236.64799    45
Error 1055 : Expression #1 of SELECT list is not in GROUP BY clause and contains nonaggregated column 'meteo.sdata.timekey' which is not functionally dependent on columns in GROUP BY clause; this is incompatible with sql_mode=only_full_group_by
NumberStation Name